createdAt,value
2018-04-25T00:01:07.864Z,6.20
2018-04-25T00:03:35.517Z,7.00
2018-04-25T00:06:03.184Z,6.00
2018-04-25T00:08:30.829Z,6.10
2018-04-25T00:10:58.421Z,6.00
2018-04-25T00:13:26.357Z,6.00
2018-04-25T00:15:53.969Z,6.77
2018-04-25T00:18:21.629Z,5.23
2018-04-25T00:20:49.252Z,5.70
2018-04-25T00:23:16.839Z,5.13
2018-04-25T00:25:44.467Z,6.73
2018-04-25T00:28:12.254Z,5.00
2018-04-25T00:30:39.863Z,5.47
2018-04-25T00:33:07.485Z,5.70
2018-04-25T00:35:35.183Z,5.37
2018-04-25T00:38:02.816Z,5.13
2018-04-25T00:40:30.439Z,5.53
2018-04-25T00:42:58.109Z,5.57
2018-04-25T00:45:25.791Z,5.90
2018-04-25T00:47:53.407Z,7.87
2018-04-25T00:50:21.167Z,5.07
2018-04-25T00:52:48.839Z,5.03
2018-04-25T00:55:16.452Z,5.43
2018-04-25T00:57:44.260Z,5.77
2018-04-25T01:00:11.961Z,5.53
2018-04-25T01:02:39.583Z,5.63
2018-04-25T01:05:07.284Z,5.80
2018-04-25T01:07:34.896Z,5.70
2018-04-25T01:10:02.565Z,4.60
2018-04-25T01:12:30.295Z,4.43
2018-04-25T01:14:58.064Z,4.77
2018-04-25T01:17:26.459Z,4.73
2018-04-25T01:19:54.119Z,4.00
2018-04-25T01:22:22.360Z,4.10
2018-04-25T01:25:04.877Z,4.60
2018-04-25T01:27:36.035Z,4.70
2018-04-25T01:30:03.712Z,4.23
2018-04-25T01:32:31.377Z,3.90
2018-04-25T01:34:59.064Z,4.00
2018-04-25T01:37:35.665Z,4.40
2018-04-25T01:40:04.172Z,4.20
2018-04-25T01:45:53.777Z,4.13
2018-04-25T01:51:31.780Z,3.97
2018-04-25T01:54:11.218Z,5.23
2018-04-25T01:56:50.616Z,4.10
2018-04-25T01:59:30.046Z,4.90
2018-04-25T02:01:57.128Z,4.33
2018-04-25T02:04:24.701Z,3.87
2018-04-25T02:06:52.376Z,4.40
2018-04-25T02:09:19.959Z,4.53
2018-04-25T02:11:47.573Z,3.97
2018-04-25T02:14:15.278Z,4.50
2018-04-25T02:16:43.617Z,4.43
2018-04-25T02:19:11.191Z,4.70
2018-04-25T02:21:38.880Z,5.90
2018-04-25T02:24:07.516Z,4.93
2018-04-25T02:26:35.104Z,6.30
2018-04-25T02:29:02.802Z,4.50
2018-04-25T02:31:30.431Z,5.20
2018-04-25T02:33:57.991Z,4.70
2018-04-25T02:36:25.604Z,4.83
2018-04-25T02:38:53.225Z,4.60
2018-04-25T02:41:20.789Z,6.57
2018-04-25T02:43:48.415Z,4.90
2018-04-25T02:46:16.011Z,4.67
2018-04-25T02:48:43.632Z,4.70
2018-04-25T02:51:11.405Z,4.53
2018-04-25T02:53:38.963Z,4.87
2018-04-25T02:56:06.536Z,4.30
2018-04-25T02:58:34.304Z,4.10
2018-04-25T03:01:01.872Z,4.57
2018-04-25T03:03:29.432Z,3.93
2018-04-25T03:05:59.784Z,4.23
2018-04-25T03:08:27.412Z,3.60
2018-04-25T03:10:54.975Z,4.13
2018-04-25T03:13:22.667Z,4.13
2018-04-25T03:15:52.564Z,3.97
2018-04-25T03:18:20.188Z,3.67
2018-04-25T03:20:47.883Z,3.87
2018-04-25T03:23:15.510Z,4.07
2018-04-25T03:25:43.075Z,4.27
2018-04-25T03:28:10.783Z,4.67
2018-04-25T03:30:38.411Z,3.60
2018-04-25T03:33:06.075Z,3.83
2018-04-25T03:35:33.767Z,3.80
2018-04-25T03:38:01.336Z,3.97
2018-04-25T03:40:28.897Z,5.10
2018-04-25T03:42:56.504Z,4.33
2018-04-25T03:45:24.165Z,3.83
2018-04-25T03:47:52.716Z,3.50
2018-04-25T03:50:20.427Z,3.90
2018-04-25T03:52:48.049Z,4.07
2018-04-25T03:55:15.678Z,4.87
2018-04-25T03:57:43.307Z,4.22
2018-04-25T04:00:10.968Z,4.97
2018-04-25T04:02:38.532Z,3.97
2018-04-25T04:05:06.239Z,4.10
2018-04-25T04:07:33.794Z,4.20
2018-04-25T04:10:01.353Z,4.07
2018-04-25T04:12:29.023Z,6.00
2018-04-25T04:14:56.658Z,5.50
2018-04-25T04:17:24.222Z,4.10
2018-04-25T04:19:52.606Z,4.07
2018-04-25T04:22:20.167Z,5.37
2018-04-25T04:24:47.730Z,4.50
2018-04-25T04:27:18.439Z,3.77
2018-04-25T04:29:45.997Z,4.97
2018-04-25T04:32:13.561Z,4.67
2018-04-25T04:34:41.199Z,4.70
2018-04-25T04:37:08.765Z,8.30
2018-04-25T04:39:36.338Z,6.07
2018-04-25T04:42:03.939Z,5.47
2018-04-25T04:44:31.556Z,5.50
2018-04-25T04:46:59.123Z,5.73
2018-04-25T04:49:26.891Z,5.53
2018-04-25T04:51:54.551Z,4.57
2018-04-25T04:54:22.126Z,5.77
2018-04-25T04:56:49.828Z,6.50
2018-04-25T04:59:17.450Z,8.30
2018-04-25T05:01:45.023Z,8.27
2018-04-25T05:04:12.633Z,4.73
2018-04-25T05:06:40.252Z,7.47
2018-04-25T05:09:07.817Z,5.60
2018-04-25T05:11:35.428Z,7.03
2018-04-25T05:14:03.087Z,12.60
2018-04-25T05:16:30.654Z,7.57
2018-04-25T05:18:58.420Z,7.63
2018-04-25T05:21:26.115Z,8.50
2018-04-25T05:23:53.692Z,8.53
2018-04-25T05:26:21.337Z,7.93
2018-04-25T05:28:49.049Z,5.93
2018-04-25T05:31:16.662Z,12.30
2018-04-25T05:33:44.336Z,10.50
2018-04-25T05:36:11.961Z,13.47
2018-04-25T05:38:39.550Z,9.10
2018-04-25T05:41:07.203Z,6.73
2018-04-25T05:43:34.921Z,9.23
2018-04-25T05:46:02.560Z,8.63
2018-04-25T05:48:30.458Z,8.60
2018-04-25T05:50:58.088Z,9.00
2018-04-25T05:53:25.719Z,8.60
2018-04-25T05:55:53.443Z,8.50
2018-04-25T05:58:21.007Z,9.23
2018-04-25T06:00:48.582Z,17.53
2018-04-25T06:03:16.228Z,10.73
2018-04-25T06:05:43.800Z,12.53
2018-04-25T06:08:11.429Z,6.37
2018-04-25T06:10:39.104Z,10.87
2018-04-25T06:13:06.729Z,8.57
2018-04-25T06:15:34.385Z,18.52
2018-04-25T06:18:01.999Z,7.00
2018-04-25T06:20:32.473Z,7.57
2018-04-25T06:23:00.657Z,6.97
2018-04-25T06:25:28.287Z,5.43
2018-04-25T06:27:55.937Z,10.07
2018-04-25T06:30:23.580Z,6.67
2018-04-25T06:32:51.282Z,4.97
2018-04-25T06:35:18.869Z,6.53
2018-04-25T06:37:46.503Z,6.60
2018-04-25T06:40:34.243Z,5.50
2018-04-25T06:43:02.098Z,4.78
2018-04-25T06:45:29.746Z,5.60
2018-04-25T06:47:57.372Z,9.67
2018-04-25T06:50:27.897Z,4.97
2018-04-25T06:52:56.677Z,5.83
2018-04-25T06:55:24.691Z,6.30
2018-04-25T06:57:52.333Z,5.12
2018-04-25T07:00:19.909Z,4.97
2018-04-25T07:02:47.529Z,12.93
2018-04-25T07:05:15.171Z,10.02
2018-04-25T07:07:42.806Z,10.25
2018-04-25T07:10:10.573Z,4.95
2018-04-25T07:12:38.147Z,7.10
2018-04-25T07:15:05.784Z,7.28
2018-04-25T07:17:33.472Z,6.95
2018-04-25T07:20:01.056Z,5.30
2018-04-25T07:22:29.614Z,5.15
2018-04-25T07:24:57.474Z,7.82
2018-04-25T07:27:25.076Z,5.32
2018-04-25T07:29:53.160Z,8.38
2018-04-25T07:32:20.773Z,5.18
2018-04-25T07:34:48.333Z,5.95
2018-04-25T07:37:15.908Z,5.18
2018-04-25T07:39:43.550Z,6.22
2018-04-25T07:42:11.896Z,4.57
2018-04-25T07:44:39.581Z,5.00
2018-04-25T07:47:07.292Z,6.85
2018-04-25T07:49:34.880Z,5.57
2018-04-25T07:52:02.468Z,5.10
2018-04-25T07:54:30.118Z,17.45
2018-04-25T07:56:57.731Z,9.68
2018-04-25T07:59:25.384Z,6.10
2018-04-25T08:01:53.092Z,5.28
2018-04-25T08:04:20.727Z,5.47
2018-04-25T08:06:48.331Z,4.95
2018-04-25T08:09:16.043Z,5.15
2018-04-25T08:11:43.679Z,5.18
2018-04-25T08:14:23.063Z,5.93
2018-04-25T08:17:02.473Z,6.28
2018-04-25T08:19:54.876Z,5.60
2018-04-25T08:22:22.527Z,5.32
2018-04-25T08:24:50.154Z,6.20
2018-04-25T08:27:18.317Z,6.65
2018-04-25T08:29:45.895Z,6.03
2018-04-25T08:32:13.471Z,7.78
2018-04-25T08:34:41.091Z,7.32
2018-04-25T08:37:08.757Z,5.28
2018-04-25T08:39:36.532Z,6.12
2018-04-25T08:42:04.155Z,5.75
2018-04-25T08:44:31.737Z,5.18
2018-04-25T08:46:59.311Z,9.77
2018-04-25T08:49:27.812Z,7.07
2018-04-25T08:51:55.403Z,5.40
2018-04-25T08:54:22.983Z,6.80
2018-04-25T08:56:50.714Z,5.62
2018-04-25T08:59:18.294Z,5.78
2018-04-25T09:01:45.957Z,5.50
2018-04-25T09:04:13.594Z,9.35
2018-04-25T09:06:41.417Z,5.90
2018-04-25T09:09:09.076Z,7.05
2018-04-25T09:11:36.739Z,6.03
2018-04-25T09:14:04.330Z,8.65
2018-04-25T09:16:31.900Z,8.80
2018-04-25T09:18:59.574Z,5.97
2018-04-25T09:21:27.156Z,8.23
2018-04-25T09:23:54.723Z,6.00
2018-04-25T09:26:22.468Z,7.25
2018-04-25T09:28:50.202Z,5.90
2018-04-25T09:31:17.844Z,6.00
2018-04-25T09:33:45.582Z,5.90
2018-04-25T09:36:13.200Z,5.62
2018-04-25T09:38:41.280Z,5.93
2018-04-25T09:41:08.926Z,5.35
2018-04-25T09:43:36.565Z,5.97
2018-04-25T09:46:04.235Z,6.85
2018-04-25T09:48:31.915Z,17.95
2018-04-25T09:50:59.529Z,7.55
2018-04-25T09:53:27.164Z,5.65
2018-04-25T09:55:54.944Z,5.85
2018-04-25T09:58:22.565Z,7.80
2018-04-25T10:00:55.944Z,5.40
2018-04-25T10:03:23.554Z,5.90
2018-04-25T10:05:51.142Z,6.15
2018-04-25T10:08:18.789Z,12.82
2018-04-25T10:10:46.377Z,7.00
2018-04-25T10:13:14.033Z,9.13
2018-04-25T10:15:41.647Z,6.32
2018-04-25T10:18:09.226Z,6.35
2018-04-25T10:20:36.796Z,6.22
2018-04-25T10:23:04.488Z,5.75
2018-04-25T10:25:32.636Z,5.55
2018-04-25T10:28:00.162Z,5.60
2018-04-25T10:30:27.926Z,5.82
2018-04-25T10:32:55.511Z,5.68
2018-04-25T10:35:23.110Z,6.78
2018-04-25T10:37:50.832Z,5.70
2018-04-25T10:40:18.484Z,6.20
2018-04-25T10:42:46.064Z,7.35
2018-04-25T10:45:13.759Z,12.57
2018-04-25T10:47:41.365Z,6.28
2018-04-25T10:50:09.004Z,6.28
2018-04-25T10:52:36.711Z,7.00
2018-04-25T10:55:05.180Z,7.28
2018-04-25T10:57:32.816Z,6.20
2018-04-25T11:00:00.444Z,7.93
2018-04-25T11:02:28.156Z,9.15
2018-04-25T11:04:55.731Z,8.70
2018-04-25T11:07:23.446Z,6.80
2018-04-25T11:09:51.044Z,7.05
2018-04-25T11:12:18.769Z,6.97
2018-04-25T11:14:46.462Z,6.25
2018-04-25T11:17:14.094Z,6.10
2018-04-25T11:19:41.676Z,6.37
2018-04-25T11:22:09.378Z,20.65
2018-04-25T11:24:36.959Z,7.75
2018-04-25T11:27:04.627Z,10.77
2018-04-25T11:29:32.304Z,7.35
2018-04-25T11:32:00.762Z,9.70
2018-04-25T11:34:28.336Z,8.20
2018-04-25T11:36:55.960Z,6.53
2018-04-25T11:39:23.543Z,7.65
2018-04-25T11:41:51.134Z,11.73
2018-04-25T11:44:18.752Z,8.32
2018-04-25T11:46:46.401Z,7.05
2018-04-25T11:49:14.067Z,6.30
2018-04-25T11:51:41.786Z,6.25
2018-04-25T11:54:09.367Z,6.43
2018-04-25T11:56:36.963Z,22.60
2018-04-25T11:59:04.672Z,6.28
2018-04-25T12:01:32.273Z,8.13
2018-04-25T12:03:59.868Z,10.32
2018-04-25T12:06:27.598Z,12.48
2018-04-25T12:08:55.191Z,10.30
2018-04-25T12:11:22.797Z,11.30
2018-04-25T12:13:50.456Z,12.25
2018-04-25T12:16:18.151Z,9.02
2018-04-25T12:18:45.748Z,9.25
2018-04-25T12:21:13.422Z,9.47
2018-04-25T12:23:41.011Z,10.63
2018-04-25T12:26:08.674Z,8.23
2018-04-25T12:28:36.324Z,8.77
2018-04-25T12:31:03.932Z,11.80
2018-04-25T12:33:31.860Z,7.90
2018-04-25T12:35:59.536Z,9.77
2018-04-25T12:38:27.163Z,11.27
2018-04-25T12:40:54.744Z,8.47
2018-04-25T12:43:22.697Z,9.13
2018-04-25T12:45:52.304Z,10.67
2018-04-25T12:48:19.921Z,8.47
2018-04-25T12:50:47.597Z,9.30
2018-04-25T12:53:15.164Z,9.40
2018-04-25T12:55:42.756Z,9.60
2018-04-25T12:58:12.950Z,8.87
2018-04-25T13:00:40.601Z,8.77
2018-04-25T13:03:08.286Z,12.40
2018-04-25T13:05:35.928Z,8.83
2018-04-25T13:08:03.568Z,8.37
2018-04-25T13:10:31.212Z,9.13
2018-04-25T13:12:58.925Z,11.77
2018-04-25T13:15:26.524Z,8.60
2018-04-25T13:17:54.150Z,8.83
2018-04-25T13:20:21.945Z,9.13
2018-04-25T13:22:49.520Z,8.47
2018-04-25T13:25:17.092Z,8.63
2018-04-25T13:27:44.725Z,8.50
2018-04-25T13:30:12.301Z,7.57
2018-04-25T13:32:39.888Z,8.67
2018-04-25T13:35:07.660Z,8.20
2018-04-25T13:37:35.308Z,9.40
2018-04-25T13:40:02.960Z,7.90
2018-04-25T13:42:30.696Z,8.97
2018-04-25T13:44:58.324Z,8.47
2018-04-25T13:47:26.760Z,8.20
2018-04-25T13:49:54.445Z,8.03
2018-04-25T13:52:22.084Z,9.37
2018-04-25T13:54:49.652Z,7.70
2018-04-25T13:57:17.280Z,7.70
2018-04-25T13:59:44.881Z,11.13
2018-04-25T14:02:12.685Z,9.97
2018-04-25T14:04:40.315Z,9.70
2018-04-25T14:07:07.924Z,17.27
2018-04-25T14:09:35.520Z,16.87
2018-04-25T14:12:03.172Z,15.23
2018-04-25T14:14:30.782Z,13.33
2018-04-25T14:16:58.660Z,13.32
2018-04-25T14:19:26.295Z,11.75
2018-04-25T14:21:53.878Z,15.85
2018-04-25T14:24:21.524Z,15.67
2018-04-25T14:26:49.299Z,17.07
2018-04-25T14:29:16.884Z,12.50
2018-04-25T14:31:44.532Z,13.70
2018-04-25T14:34:12.156Z,12.25
2018-04-25T14:36:39.937Z,13.55
2018-04-25T14:39:07.549Z,15.52
2018-04-25T14:41:36.024Z,20.58
2018-04-25T14:44:03.746Z,22.70
2018-04-25T14:46:31.417Z,18.67
2018-04-25T14:48:59.084Z,17.90
2018-04-25T14:51:26.696Z,17.33
2018-04-25T14:53:54.349Z,15.75
2018-04-25T14:56:21.983Z,17.52
2018-04-25T14:58:49.591Z,13.18
2018-04-25T15:01:17.240Z,16.67
2018-04-25T15:03:44.856Z,26.27
2018-04-25T15:06:13.074Z,17.98
2018-04-25T15:08:40.660Z,17.40
2018-04-25T15:11:08.455Z,14.82
2018-04-25T15:13:36.039Z,16.00
2018-04-25T15:16:03.739Z,20.30
2018-04-25T15:18:32.226Z,15.25
2018-04-25T15:20:59.887Z,14.75
2018-04-25T15:23:27.572Z,10.80
2018-04-25T15:25:55.264Z,10.60
2018-04-25T15:28:22.853Z,8.80
2018-04-25T15:30:50.434Z,9.55
2018-04-25T15:33:18.069Z,12.20
2018-04-25T15:35:45.720Z,8.93
2018-04-25T15:38:13.357Z,9.55
2018-04-25T15:40:41.023Z,11.55
2018-04-25T15:43:08.703Z,11.05
2018-04-25T15:45:36.285Z,9.90
2018-04-25T15:48:04.673Z,8.82
2018-04-25T15:50:32.978Z,7.90
2018-04-25T15:53:00.607Z,7.60
2018-04-25T15:55:28.244Z,10.25
2018-04-25T15:57:55.833Z,19.37
2018-04-25T16:00:23.412Z,14.73
2018-04-25T16:02:51.144Z,24.83
2018-04-25T16:05:18.831Z,17.58
2018-04-25T16:07:46.416Z,44.00
2018-04-25T16:10:14.086Z,73.40
2018-04-25T16:12:41.663Z,17.67
2018-04-25T16:15:09.292Z,11.73
2018-04-25T16:17:36.959Z,12.75
2018-04-25T16:20:04.560Z,12.07
2018-04-25T16:22:32.168Z,19.40
2018-04-25T16:24:59.800Z,12.40
2018-04-25T16:27:27.504Z,14.83
2018-04-25T16:29:55.078Z,11.97
2018-04-25T16:32:22.833Z,15.23
2018-04-25T16:34:50.407Z,15.47
2018-04-25T16:37:18.000Z,13.53
2018-04-25T16:39:45.932Z,12.17
2018-04-25T16:42:13.540Z,20.63
2018-04-25T16:44:41.181Z,20.40
2018-04-25T16:47:08.820Z,36.40
2018-04-25T16:49:36.408Z,14.33
2018-04-25T16:52:03.995Z,14.17
2018-04-25T16:54:31.627Z,16.23
2018-04-25T16:56:59.205Z,20.93
2018-04-25T16:59:26.798Z,16.57
2018-04-25T17:01:54.435Z,18.90
2018-04-25T17:04:22.075Z,14.53
2018-04-25T17:06:49.691Z,9.43
2018-04-25T17:09:17.329Z,9.73
2018-04-25T17:11:44.993Z,14.30
2018-04-25T17:14:12.714Z,10.13
2018-04-25T17:16:40.429Z,12.63
2018-04-25T17:19:08.004Z,12.13
2018-04-25T17:21:35.647Z,12.50
2018-04-25T17:24:03.332Z,15.40
2018-04-25T17:26:30.931Z,18.73
2018-04-25T17:28:58.595Z,23.87
2018-04-25T17:31:26.289Z,30.13
2018-04-25T17:33:53.867Z,31.77
2018-04-25T17:36:21.475Z,39.40
2018-04-25T17:38:50.185Z,20.37
2018-04-25T17:41:17.872Z,21.10
2018-04-25T17:43:45.655Z,57.37
2018-04-25T17:46:14.132Z,17.13
2018-04-25T17:48:41.893Z,15.00
2018-04-25T17:51:09.497Z,20.73
2018-04-25T17:53:37.250Z,17.77
2018-04-25T17:56:04.875Z,12.07
2018-04-25T17:58:32.457Z,10.80
2018-04-25T18:01:00.076Z,9.23
2018-04-25T18:03:27.791Z,9.83
2018-04-25T18:05:55.365Z,12.80
2018-04-25T18:08:23.048Z,13.57
2018-04-25T18:10:50.697Z,13.57
2018-04-25T18:13:18.339Z,15.10
2018-04-25T18:15:46.028Z,18.77
2018-04-25T18:18:14.527Z,13.93
2018-04-25T18:20:42.138Z,12.57
2018-04-25T18:23:10.694Z,12.10
2018-04-25T18:25:38.292Z,16.60
2018-04-25T18:28:05.967Z,15.87
2018-04-25T18:30:33.683Z,13.97
2018-04-25T18:33:01.277Z,30.57
2018-04-25T18:35:28.870Z,19.80
2018-04-25T18:37:56.496Z,13.53
2018-04-25T18:40:24.078Z,11.07
2018-04-25T18:42:51.814Z,11.53
2018-04-25T18:45:19.445Z,12.20
2018-04-25T18:47:47.033Z,11.67
2018-04-25T18:50:14.644Z,11.83
2018-04-25T18:52:42.327Z,11.07
2018-04-25T18:55:09.921Z,10.10
2018-04-25T18:57:37.606Z,10.33
2018-04-25T19:00:05.332Z,11.83
2018-04-25T19:02:32.917Z,9.90
2018-04-25T19:05:00.508Z,9.53
2018-04-25T19:07:28.188Z,11.33
2018-04-25T19:09:55.910Z,9.67
2018-04-25T19:12:24.077Z,9.57
2018-04-25T19:14:51.769Z,10.20
2018-04-25T19:17:22.151Z,12.17
2018-04-25T19:19:49.704Z,9.37
2018-04-25T19:22:17.328Z,15.02
2018-04-25T19:24:44.912Z,24.73
2018-04-25T19:27:12.811Z,14.13
2018-04-25T19:29:41.228Z,20.03
2018-04-25T19:32:08.811Z,12.73
2018-04-25T19:34:36.532Z,10.63
2018-04-25T19:37:04.267Z,13.63
2018-04-25T19:39:31.860Z,13.83
2018-04-25T19:41:59.452Z,16.50
2018-04-25T19:44:27.393Z,11.60
2018-04-25T19:46:55.017Z,10.53
2018-04-25T19:49:22.600Z,8.50
2018-04-25T19:51:50.278Z,9.33
2018-04-25T19:54:17.920Z,8.87
2018-04-25T19:56:45.554Z,9.93
2018-04-25T19:59:13.298Z,8.83
2018-04-25T20:01:40.963Z,8.73
2018-04-25T20:04:08.533Z,9.93
2018-04-25T20:06:36.178Z,8.47
2018-04-25T20:09:03.863Z,8.57
2018-04-25T20:11:31.452Z,10.13
2018-04-25T20:13:59.153Z,13.13
2018-04-25T20:16:26.728Z,11.47
2018-04-25T20:18:54.316Z,9.37
2018-04-25T20:21:21.933Z,8.27
2018-04-25T20:23:49.516Z,8.60
2018-04-25T20:26:17.095Z,7.87
2018-04-25T20:28:44.720Z,7.93
2018-04-25T20:31:12.296Z,9.73
2018-04-25T20:33:39.884Z,9.83
2018-04-25T20:36:07.499Z,8.27
2018-04-25T20:38:36.041Z,8.33
2018-04-25T20:41:03.619Z,9.47
2018-04-25T20:43:31.248Z,8.07
2018-04-25T20:45:59.220Z,8.00
2018-04-25T20:48:26.833Z,9.37
2018-04-25T20:50:54.517Z,8.50
2018-04-25T20:53:22.175Z,7.80
2018-04-25T20:55:49.760Z,9.40
2018-04-25T20:58:17.376Z,9.53
2018-04-25T21:00:44.979Z,19.00
2018-04-25T21:03:12.652Z,24.33
2018-04-25T21:05:40.281Z,16.07
2018-04-25T21:08:07.934Z,14.23
2018-04-25T21:10:35.507Z,8.93
2018-04-25T21:13:03.229Z,8.20
2018-04-25T21:15:30.823Z,8.87
2018-04-25T21:17:59.307Z,7.70
2018-04-25T21:20:27.099Z,9.07
2018-04-25T21:22:54.740Z,8.33
2018-04-25T21:25:22.368Z,10.43
2018-04-25T21:27:50.050Z,8.13
2018-04-25T21:30:17.634Z,8.67
2018-04-25T21:32:45.213Z,8.27
2018-04-25T21:35:13.027Z,8.30
2018-04-25T21:37:40.606Z,8.83
2018-04-25T21:40:08.179Z,8.07
2018-04-25T21:42:35.901Z,8.33
2018-04-25T21:45:03.564Z,7.83
2018-04-25T21:47:31.325Z,7.90
2018-04-25T21:49:58.959Z,7.87
2018-04-25T21:52:26.552Z,7.50
2018-04-25T21:54:54.141Z,7.63
2018-04-25T21:57:21.848Z,8.07
2018-04-25T21:59:49.430Z,7.87
2018-04-25T22:02:16.996Z,8.10
2018-04-25T22:04:44.599Z,7.67
2018-04-25T22:07:12.235Z,7.40
2018-04-25T22:09:39.867Z,7.23
2018-04-25T22:12:07.485Z,8.10
2018-04-25T22:14:35.125Z,7.77
2018-04-25T22:17:02.735Z,9.37
2018-04-25T22:19:30.356Z,8.17
2018-04-25T22:21:57.923Z,7.57
2018-04-25T22:24:25.548Z,7.83
2018-04-25T22:26:53.225Z,7.90
2018-04-25T22:29:20.813Z,7.67
2018-04-25T22:31:48.381Z,7.93
2018-04-25T22:34:16.044Z,7.63
2018-04-25T22:36:43.643Z,7.97
2018-04-25T22:39:11.282Z,8.80
2018-04-25T22:41:39.010Z,7.97
2018-04-25T22:44:06.661Z,7.90
2018-04-25T22:46:34.314Z,9.10
2018-04-25T22:49:02.153Z,9.37
2018-04-25T22:51:29.727Z,8.07
2018-04-25T22:53:57.361Z,8.90
2018-04-25T22:56:25.057Z,9.50
2018-04-25T22:58:53.499Z,8.30
2018-04-25T23:01:21.098Z,11.13
2018-04-25T23:03:48.724Z,9.10
2018-04-25T23:06:17.185Z,8.53
2018-04-25T23:09:02.423Z,8.87
2018-04-25T23:11:29.997Z,9.47
2018-04-25T23:13:57.551Z,8.03
2018-04-25T23:16:25.300Z,8.77
2018-04-25T23:18:52.888Z,9.07
2018-04-25T23:21:20.458Z,9.03
2018-04-25T23:23:48.168Z,9.63
2018-04-25T23:26:15.784Z,9.27
2018-04-25T23:28:43.353Z,8.93
2018-04-25T23:31:10.965Z,9.37
2018-04-25T23:33:38.568Z,9.73
2018-04-25T23:36:06.165Z,10.40
2018-04-25T23:38:33.875Z,9.67
2018-04-25T23:41:01.451Z,9.80
2018-04-25T23:43:29.031Z,9.70
2018-04-25T23:45:56.654Z,10.27
2018-04-25T23:48:24.234Z,10.10
2018-04-25T23:50:51.850Z,10.50
2018-04-25T23:53:19.505Z,9.43
2018-04-25T23:55:47.093Z,10.50
2018-04-25T23:58:14.742Z,10.07
